sensor_id;sensor_type;location;lat;lon;timestamp;P1;durP1;ratioP1;P2;durP2;ratioP2
9722;SDS011;4900;49.306;8.500;2023-06-14T00:00:36;4.68;;;3.80;;
9722;SDS011;4900;49.306;8.500;2023-06-14T00:03:06;4.88;;;4.20;;
9722;SDS011;4900;49.306;8.500;2023-06-14T00:05:33;5.00;;;3.65;;
9722;SDS011;4900;49.306;8.500;2023-06-14T00:08:03;4.53;;;3.65;;
9722;SDS011;4900;49.306;8.500;2023-06-14T00:10:32;4.13;;;3.72;;
9722;SDS011;4900;49.306;8.500;2023-06-14T00:13:00;5.05;;;3.67;;
9722;SDS011;4900;49.306;8.500;2023-06-14T00:15:26;3.95;;;3.55;;
9722;SDS011;4900;49.306;8.500;2023-06-14T00:17:53;3.95;;;3.55;;
9722;SDS011;4900;49.306;8.500;2023-06-14T00:20:20;3.75;;;3.33;;
9722;SDS011;4900;49.306;8.500;2023-06-14T00:22:45;4.93;;;3.83;;
9722;SDS011;4900;49.306;8.500;2023-06-14T00:25:11;4.60;;;3.78;;
9722;SDS011;4900;49.306;8.500;2023-06-14T00:27:36;4.10;;;3.70;;
9722;SDS011;4900;49.306;8.500;2023-06-14T00:30:02;4.07;;;3.70;;
9722;SDS011;4900;49.306;8.500;2023-06-14T00:32:27;4.00;;;3.60;;
9722;SDS011;4900;49.306;8.500;2023-06-14T00:34:53;4.47;;;3.65;;
9722;SDS011;4900;49.306;8.500;2023-06-14T00:37:18;4.22;;;3.83;;
9722;SDS011;4900;49.306;8.500;2023-06-14T00:39:44;4.82;;;3.78;;
9722;SDS011;4900;49.306;8.500;2023-06-14T00:42:09;3.92;;;3.50;;
9722;SDS011;4900;49.306;8.500;2023-06-14T00:44:35;4.28;;;3.85;;
9722;SDS011;4900;49.306;8.500;2023-06-14T00:47:00;4.22;;;3.83;;
9722;SDS011;4900;49.306;8.500;2023-06-14T00:49:27;4.30;;;3.90;;
9722;SDS011;4900;49.306;8.500;2023-06-14T00:51:54;4.55;;;3.70;;
9722;SDS011;4900;49.306;8.500;2023-06-14T00:54:20;7.25;;;3.88;;
9722;SDS011;4900;49.306;8.500;2023-06-14T00:56:45;3.97;;;3.58;;
9722;SDS011;4900;49.306;8.500;2023-06-14T00:59:11;4.25;;;3.85;;
9722;SDS011;4900;49.306;8.500;2023-06-14T01:01:36;4.50;;;3.83;;
9722;SDS011;4900;49.306;8.500;2023-06-14T01:04:02;4.53;;;4.10;;
9722;SDS011;4900;49.306;8.500;2023-06-14T01:06:43;4.15;;;3.75;;
9722;SDS011;4900;49.306;8.500;2023-06-14T01:09:35;5.18;;;3.90;;
9722;SDS011;4900;49.306;8.500;2023-06-14T01:12:24;4.43;;;3.65;;
9722;SDS011;4900;49.306;8.500;2023-06-14T01:15:04;4.40;;;3.78;;
9722;SDS011;4900;49.306;8.500;2023-06-14T01:17:30;5.20;;;4.03;;
9722;SDS011;4900;49.306;8.500;2023-06-14T01:20:03;4.55;;;4.10;;
9722;SDS011;4900;49.306;8.500;2023-06-14T01:22:33;4.10;;;3.70;;
9722;SDS011;4900;49.306;8.500;2023-06-14T01:24:58;4.00;;;3.60;;
9722;SDS011;4900;49.306;8.500;2023-06-14T01:27:24;4.82;;;3.92;;
9722;SDS011;4900;49.306;8.500;2023-06-14T01:29:53;5.40;;;4.72;;
9722;SDS011;4900;49.306;8.500;2023-06-14T01:32:24;5.18;;;4.00;;
9722;SDS011;4900;49.306;8.500;2023-06-14T01:34:51;4.38;;;3.97;;
9722;SDS011;4900;49.306;8.500;2023-06-14T01:37:17;3.97;;;3.58;;
9722;SDS011;4900;49.306;8.500;2023-06-14T01:39:43;4.20;;;3.80;;
9722;SDS011;4900;49.306;8.500;2023-06-14T01:42:10;5.25;;;4.10;;
9722;SDS011;4900;49.306;8.500;2023-06-14T01:44:37;6.53;;;4.47;;
9722;SDS011;4900;49.306;8.500;2023-06-14T01:47:03;5.80;;;4.25;;
9722;SDS011;4900;49.306;8.500;2023-06-14T01:49:29;6.40;;;4.10;;
9722;SDS011;4900;49.306;8.500;2023-06-14T01:51:54;5.22;;;4.00;;
9722;SDS011;4900;49.306;8.500;2023-06-14T01:54:19;4.78;;;4.30;;
9722;SDS011;4900;49.306;8.500;2023-06-14T01:56:46;4.50;;;4.10;;
9722;SDS011;4900;49.306;8.500;2023-06-14T01:59:12;4.82;;;4.20;;
9722;SDS011;4900;49.306;8.500;2023-06-14T02:01:37;5.75;;;4.45;;
9722;SDS011;4900;49.306;8.500;2023-06-14T02:04:03;5.70;;;4.20;;
9722;SDS011;4900;49.306;8.500;2023-06-14T02:06:28;6.85;;;4.90;;
9722;SDS011;4900;49.306;8.500;2023-06-14T02:08:53;4.93;;;4.28;;
9722;SDS011;4900;49.306;8.500;2023-06-14T02:11:19;4.78;;;4.25;;
9722;SDS011;4900;49.306;8.500;2023-06-14T02:13:44;6.45;;;5.10;;
9722;SDS011;4900;49.306;8.500;2023-06-14T02:16:10;4.88;;;4.38;;
9722;SDS011;4900;49.306;8.500;2023-06-14T02:18:36;4.55;;;4.15;;
9722;SDS011;4900;49.306;8.500;2023-06-14T02:21:04;4.97;;;4.47;;
9722;SDS011;4900;49.306;8.500;2023-06-14T02:23:29;4.90;;;4.10;;
9722;SDS011;4900;49.306;8.500;2023-06-14T02:25:55;4.75;;;4.32;;
9722;SDS011;4900;49.306;8.500;2023-06-14T02:28:21;5.07;;;4.45;;
9722;SDS011;4900;49.306;8.500;2023-06-14T02:30:46;4.65;;;4.15;;
9722;SDS011;4900;49.306;8.500;2023-06-14T02:33:12;4.85;;;4.30;;
9722;SDS011;4900;49.306;8.500;2023-06-14T02:35:38;4.97;;;4.40;;
9722;SDS011;4900;49.306;8.500;2023-06-14T02:38:03;5.30;;;4.10;;
9722;SDS011;4900;49.306;8.500;2023-06-14T02:40:29;5.30;;;4.78;;
9722;SDS011;4900;49.306;8.500;2023-06-14T02:42:54;5.75;;;4.70;;
9722;SDS011;4900;49.306;8.500;2023-06-14T02:45:20;5.20;;;4.40;;
9722;SDS011;4900;49.306;8.500;2023-06-14T02:47:46;5.57;;;4.75;;
9722;SDS011;4900;49.306;8.500;2023-06-14T02:50:11;4.95;;;4.45;;
9722;SDS011;4900;49.306;8.500;2023-06-14T02:52:37;5.18;;;4.57;;
9722;SDS011;4900;49.306;8.500;2023-06-14T02:55:03;6.03;;;4.30;;
9722;SDS011;4900;49.306;8.500;2023-06-14T02:57:29;5.43;;;4.63;;
9722;SDS011;4900;49.306;8.500;2023-06-14T02:59:55;5.57;;;4.95;;
9722;SDS011;4900;49.306;8.500;2023-06-14T03:02:20;5.38;;;4.53;;
9722;SDS011;4900;49.306;8.500;2023-06-14T03:04:45;7.03;;;4.95;;
9722;SDS011;4900;49.306;8.500;2023-06-14T03:07:12;4.85;;;4.35;;
9722;SDS011;4900;49.306;8.500;2023-06-14T03:09:38;6.30;;;4.55;;
9722;SDS011;4900;49.306;8.500;2023-06-14T03:12:05;5.47;;;4.57;;
9722;SDS011;4900;49.306;8.500;2023-06-14T03:14:34;5.00;;;4.47;;
9722;SDS011;4900;49.306;8.500;2023-06-14T03:17:00;5.32;;;4.68;;
9722;SDS011;4900;49.306;8.500;2023-06-14T03:19:27;6.03;;;5.40;;
9722;SDS011;4900;49.306;8.500;2023-06-14T03:21:52;5.25;;;4.75;;
9722;SDS011;4900;49.306;8.500;2023-06-14T03:24:18;5.03;;;4.53;;
9722;SDS011;4900;49.306;8.500;2023-06-14T03:26:45;5.05;;;4.53;;
9722;SDS011;4900;49.306;8.500;2023-06-14T03:29:10;6.53;;;5.10;;
9722;SDS011;4900;49.306;8.500;2023-06-14T03:31:36;5.45;;;4.90;;
9722;SDS011;4900;49.306;8.500;2023-06-14T03:34:02;5.38;;;4.72;;
9722;SDS011;4900;49.306;8.500;2023-06-14T03:36:27;5.82;;;5.22;;
9722;SDS011;4900;49.306;8.500;2023-06-14T03:38:53;6.03;;;5.25;;
9722;SDS011;4900;49.306;8.500;2023-06-14T03:41:20;5.68;;;5.07;;
9722;SDS011;4900;49.306;8.500;2023-06-14T03:43:45;5.55;;;4.93;;
9722;SDS011;4900;49.306;8.500;2023-06-14T03:46:11;5.55;;;4.68;;
9722;SDS011;4900;49.306;8.500;2023-06-14T03:48:36;5.18;;;4.68;;
9722;SDS011;4900;49.306;8.500;2023-06-14T03:51:03;8.48;;;5.30;;
9722;SDS011;4900;49.306;8.500;2023-06-14T03:53:30;5.05;;;4.55;;
9722;SDS011;4900;49.306;8.500;2023-06-14T03:55:55;7.82;;;5.10;;
9722;SDS011;4900;49.306;8.500;2023-06-14T03:58:22;6.75;;;5.07;;
9722;SDS011;4900;49.306;8.500;2023-06-14T04:00:48;7.47;;;5.43;;
9722;SDS011;4900;49.306;8.500;2023-06-14T04:03:13;6.38;;;5.15;;
9722;SDS011;4900;49.306;8.500;2023-06-14T04:05:40;5.82;;;5.20;;
9722;SDS011;4900;49.306;8.500;2023-06-14T04:08:09;6.65;;;5.95;;
9722;SDS011;4900;49.306;8.500;2023-06-14T04:10:35;5.78;;;5.18;;
9722;SDS011;4900;49.306;8.500;2023-06-14T04:13:00;5.97;;;5.35;;
9722;SDS011;4900;49.306;8.500;2023-06-14T04:15:26;5.45;;;4.95;;
9722;SDS011;4900;49.306;8.500;2023-06-14T04:17:53;6.47;;;5.57;;
9722;SDS011;4900;49.306;8.500;2023-06-14T04:20:22;7.32;;;5.38;;
9722;SDS011;4900;49.306;8.500;2023-06-14T04:22:50;6.97;;;5.53;;
9722;SDS011;4900;49.306;8.500;2023-06-14T04:25:16;6.03;;;5.28;;
9722;SDS011;4900;49.306;8.500;2023-06-14T04:27:41;6.05;;;5.22;;
9722;SDS011;4900;49.306;8.500;2023-06-14T04:30:07;7.40;;;5.40;;
9722;SDS011;4900;49.306;8.500;2023-06-14T04:32:33;6.25;;;5.50;;
9722;SDS011;4900;49.306;8.500;2023-06-14T04:35:03;6.38;;;5.10;;
9722;SDS011;4900;49.306;8.500;2023-06-14T04:37:29;8.93;;;5.10;;
9722;SDS011;4900;49.306;8.500;2023-06-14T04:39:55;6.95;;;5.40;;
9722;SDS011;4900;49.306;8.500;2023-06-14T04:42:22;5.25;;;4.75;;
9722;SDS011;4900;49.306;8.500;2023-06-14T04:44:50;5.82;;;5.05;;
9722;SDS011;4900;49.306;8.500;2023-06-14T04:47:17;5.80;;;5.07;;
9722;SDS011;4900;49.306;8.500;2023-06-14T04:49:43;6.53;;;5.10;;
9722;SDS011;4900;49.306;8.500;2023-06-14T04:52:08;7.47;;;5.30;;
9722;SDS011;4900;49.306;8.500;2023-06-14T04:54:38;5.82;;;4.82;;
9722;SDS011;4900;49.306;8.500;2023-06-14T04:57:06;5.68;;;5.07;;
9722;SDS011;4900;49.306;8.500;2023-06-14T04:59:32;6.50;;;4.93;;
9722;SDS011;4900;49.306;8.500;2023-06-14T05:01:58;5.53;;;4.95;;
9722;SDS011;4900;49.306;8.500;2023-06-14T05:04:25;6.85;;;4.80;;
9722;SDS011;4900;49.306;8.500;2023-06-14T05:06:51;7.38;;;5.32;;
9722;SDS011;4900;49.306;8.500;2023-06-14T05:09:19;6.25;;;5.10;;
9722;SDS011;4900;49.306;8.500;2023-06-14T05:11:45;5.70;;;5.10;;
9722;SDS011;4900;49.306;8.500;2023-06-14T05:14:11;5.10;;;4.60;;
9722;SDS011;4900;49.306;8.500;2023-06-14T05:16:37;7.28;;;4.78;;
9722;SDS011;4900;49.306;8.500;2023-06-14T05:19:04;5.28;;;4.40;;
9722;SDS011;4900;49.306;8.500;2023-06-14T05:21:30;4.90;;;4.38;;
9722;SDS011;4900;49.306;8.500;2023-06-14T05:23:57;5.15;;;4.65;;
9722;SDS011;4900;49.306;8.500;2023-06-14T05:26:22;5.88;;;4.63;;
9722;SDS011;4900;49.306;8.500;2023-06-14T05:28:50;5.20;;;4.70;;
9722;SDS011;4900;49.306;8.500;2023-06-14T05:31:17;5.32;;;4.80;;
9722;SDS011;4900;49.306;8.500;2023-06-14T05:33:43;5.85;;;4.80;;
9722;SDS011;4900;49.306;8.500;2023-06-14T05:36:08;5.70;;;4.75;;
9722;SDS011;4900;49.306;8.500;2023-06-14T05:38:33;5.93;;;5.32;;
9722;SDS011;4900;49.306;8.500;2023-06-14T05:40:59;6.00;;;5.28;;
9722;SDS011;4900;49.306;8.500;2023-06-14T05:43:24;5.03;;;4.53;;
9722;SDS011;4900;49.306;8.500;2023-06-14T05:45:50;6.47;;;4.82;;
9722;SDS011;4900;49.306;8.500;2023-06-14T05:48:16;4.88;;;4.45;;
9722;SDS011;4900;49.306;8.500;2023-06-14T05:50:41;4.82;;;4.32;;
9722;SDS011;4900;49.306;8.500;2023-06-14T05:53:07;6.05;;;5.40;;
9722;SDS011;4900;49.306;8.500;2023-06-14T05:55:32;5.90;;;5.30;;
9722;SDS011;4900;49.306;8.500;2023-06-14T05:57:57;6.00;;;5.38;;
9722;SDS011;4900;49.306;8.500;2023-06-14T06:00:23;6.07;;;4.72;;
9722;SDS011;4900;49.306;8.500;2023-06-14T06:02:48;5.40;;;4.72;;
9722;SDS011;4900;49.306;8.500;2023-06-14T06:05:14;5.25;;;4.72;;
9722;SDS011;4900;49.306;8.500;2023-06-14T06:07:43;6.60;;;5.60;;
9722;SDS011;4900;49.306;8.500;2023-06-14T06:10:10;5.18;;;4.68;;
9722;SDS011;4900;49.306;8.500;2023-06-14T06:12:36;6.03;;;5.43;;
9722;SDS011;4900;49.306;8.500;2023-06-14T06:15:02;5.28;;;4.78;;
9722;SDS011;4900;49.306;8.500;2023-06-14T06:17:28;5.75;;;4.15;;
9722;SDS011;4900;49.306;8.500;2023-06-14T06:19:54;5.78;;;4.80;;
9722;SDS011;4900;49.306;8.500;2023-06-14T06:22:19;5.85;;;5.28;;
9722;SDS011;4900;49.306;8.500;2023-06-14T06:24:45;6.30;;;4.80;;
9722;SDS011;4900;49.306;8.500;2023-06-14T06:27:11;6.22;;;4.78;;
9722;SDS011;4900;49.306;8.500;2023-06-14T06:29:37;5.70;;;5.10;;
9722;SDS011;4900;49.306;8.500;2023-06-14T06:32:03;5.03;;;4.53;;
9722;SDS011;4900;49.306;8.500;2023-06-14T06:34:29;6.22;;;5.15;;
9722;SDS011;4900;49.306;8.500;2023-06-14T06:36:54;5.75;;;5.07;;
9722;SDS011;4900;49.306;8.500;2023-06-14T06:39:20;5.75;;;4.65;;
9722;SDS011;4900;49.306;8.500;2023-06-14T06:41:46;5.32;;;4.82;;
9722;SDS011;4900;49.306;8.500;2023-06-14T06:44:11;5.75;;;5.15;;
9722;SDS011;4900;49.306;8.500;2023-06-14T06:46:37;5.32;;;4.80;;
9722;SDS011;4900;49.306;8.500;2023-06-14T06:49:07;5.20;;;4.60;;
9722;SDS011;4900;49.306;8.500;2023-06-14T06:51:34;5.07;;;4.57;;
9722;SDS011;4900;49.306;8.500;2023-06-14T06:54:01;5.60;;;5.10;;
9722;SDS011;4900;49.306;8.500;2023-06-14T06:56:27;5.18;;;4.68;;
9722;SDS011;4900;49.306;8.500;2023-06-14T06:58:53;5.53;;;5.03;;
9722;SDS011;4900;49.306;8.500;2023-06-14T07:01:18;5.38;;;4.82;;
9722;SDS011;4900;49.306;8.500;2023-06-14T07:03:45;5.35;;;4.53;;
9722;SDS011;4900;49.306;8.500;2023-06-14T07:06:10;5.18;;;4.68;;
9722;SDS011;4900;49.306;8.500;2023-06-14T07:08:36;5.60;;;4.80;;
9722;SDS011;4900;49.306;8.500;2023-06-14T07:11:03;5.38;;;4.70;;
9722;SDS011;4900;49.306;8.500;2023-06-14T07:13:30;5.20;;;4.70;;
9722;SDS011;4900;49.306;8.500;2023-06-14T07:15:56;4.85;;;4.35;;
9722;SDS011;4900;49.306;8.500;2023-06-14T07:18:23;5.65;;;5.10;;
9722;SDS011;4900;49.306;8.500;2023-06-14T07:20:48;5.75;;;5.10;;
9722;SDS011;4900;49.306;8.500;2023-06-14T07:23:15;5.18;;;4.70;;
9722;SDS011;4900;49.306;8.500;2023-06-14T07:25:40;5.53;;;5.03;;
9722;SDS011;4900;49.306;8.500;2023-06-14T07:28:06;5.30;;;4.80;;
9722;SDS011;4900;49.306;8.500;2023-06-14T07:30:32;4.50;;;4.10;;
9722;SDS011;4900;49.306;8.500;2023-06-14T07:32:57;5.05;;;4.55;;
9722;SDS011;4900;49.306;8.500;2023-06-14T07:35:23;7.18;;;4.85;;
9722;SDS011;4900;49.306;8.500;2023-06-14T07:37:48;5.40;;;4.90;;
9722;SDS011;4900;49.306;8.500;2023-06-14T07:40:14;5.45;;;4.95;;
9722;SDS011;4900;49.306;8.500;2023-06-14T07:42:40;5.10;;;4.63;;
9722;SDS011;4900;49.306;8.500;2023-06-14T07:45:06;4.97;;;4.57;;
9722;SDS011;4900;49.306;8.500;2023-06-14T07:47:32;5.30;;;4.80;;
9722;SDS011;4900;49.306;8.500;2023-06-14T07:49:58;5.35;;;4.57;;
9722;SDS011;4900;49.306;8.500;2023-06-14T07:52:23;7.63;;;4.63;;
9722;SDS011;4900;49.306;8.500;2023-06-14T07:54:50;5.07;;;4.30;;
9722;SDS011;4900;49.306;8.500;2023-06-14T07:57:15;5.65;;;5.10;;
9722;SDS011;4900;49.306;8.500;2023-06-14T07:59:40;4.85;;;4.40;;
9722;SDS011;4900;49.306;8.500;2023-06-14T08:02:06;4.72;;;4.30;;
9722;SDS011;4900;49.306;8.500;2023-06-14T08:04:32;5.20;;;4.70;;
9722;SDS011;4900;49.306;8.500;2023-06-14T08:06:58;5.38;;;4.88;;
9722;SDS011;4900;49.306;8.500;2023-06-14T08:09:24;5.07;;;4.53;;
9722;SDS011;4900;49.306;8.500;2023-06-14T08:11:50;5.80;;;4.40;;
9722;SDS011;4900;49.306;8.500;2023-06-14T08:14:16;5.22;;;4.72;;
9722;SDS011;4900;49.306;8.500;2023-06-14T08:16:41;5.50;;;5.00;;
9722;SDS011;4900;49.306;8.500;2023-06-14T08:19:07;5.80;;;5.13;;
9722;SDS011;4900;49.306;8.500;2023-06-14T08:21:33;5.75;;;5.00;;
9722;SDS011;4900;49.306;8.500;2023-06-14T08:23:58;7.00;;;4.63;;
9722;SDS011;4900;49.306;8.500;2023-06-14T08:26:25;5.43;;;4.75;;
9722;SDS011;4900;49.306;8.500;2023-06-14T08:28:54;5.95;;;4.63;;
9722;SDS011;4900;49.306;8.500;2023-06-14T08:31:20;4.68;;;4.28;;
9722;SDS011;4900;49.306;8.500;2023-06-14T08:33:45;6.07;;;4.20;;
9722;SDS011;4900;49.306;8.500;2023-06-14T08:36:11;5.28;;;4.57;;
9722;SDS011;4900;49.306;8.500;2023-06-14T08:38:37;4.85;;;4.32;;
9722;SDS011;4900;49.306;8.500;2023-06-14T08:41:04;4.50;;;4.20;;
9722;SDS011;4900;49.306;8.500;2023-06-14T08:43:33;4.82;;;4.43;;
9722;SDS011;4900;49.306;8.500;2023-06-14T08:46:03;5.35;;;4.53;;
9722;SDS011;4900;49.306;8.500;2023-06-14T08:48:29;4.35;;;4.03;;
9722;SDS011;4900;49.306;8.500;2023-06-14T08:51:01;5.10;;;4.60;;
9722;SDS011;4900;49.306;8.500;2023-06-14T08:53:32;5.40;;;4.90;;
9722;SDS011;4900;49.306;8.500;2023-06-14T08:56:01;5.03;;;4.60;;
9722;SDS011;4900;49.306;8.500;2023-06-14T08:58:30;4.82;;;4.43;;
9722;SDS011;4900;49.306;8.500;2023-06-14T09:00:59;5.10;;;4.60;;
9722;SDS011;4900;49.306;8.500;2023-06-14T09:03:26;4.70;;;4.30;;
9722;SDS011;4900;49.306;8.500;2023-06-14T09:05:57;4.78;;;4.28;;
9722;SDS011;4900;49.306;8.500;2023-06-14T09:08:26;4.30;;;3.90;;
9722;SDS011;4900;49.306;8.500;2023-06-14T09:10:55;4.97;;;4.40;;
9722;SDS011;4900;49.306;8.500;2023-06-14T09:13:21;5.03;;;4.10;;
9722;SDS011;4900;49.306;8.500;2023-06-14T09:15:46;4.75;;;4.28;;
9722;SDS011;4900;49.306;8.500;2023-06-14T09:18:12;4.38;;;4.07;;
9722;SDS011;4900;49.306;8.500;2023-06-14T09:20:38;3.88;;;3.58;;
9722;SDS011;4900;49.306;8.500;2023-06-14T09:23:03;3.90;;;3.60;;
9722;SDS011;4900;49.306;8.500;2023-06-14T09:25:30;3.95;;;3.22;;
9722;SDS011;4900;49.306;8.500;2023-06-14T09:27:55;3.97;;;3.50;;
9722;SDS011;4900;49.306;8.500;2023-06-14T09:30:21;3.70;;;3.40;;
9722;SDS011;4900;49.306;8.500;2023-06-14T09:32:46;3.30;;;3.00;;
9722;SDS011;4900;49.306;8.500;2023-06-14T09:35:12;3.20;;;2.97;;
9722;SDS011;4900;49.306;8.500;2023-06-14T09:37:42;4.15;;;3.22;;
9722;SDS011;4900;49.306;8.500;2023-06-14T09:40:08;3.67;;;3.13;;
9722;SDS011;4900;49.306;8.500;2023-06-14T09:42:33;3.40;;;3.10;;
9722;SDS011;4900;49.306;8.500;2023-06-14T09:45:00;3.22;;;2.92;;
9722;SDS011;4900;49.306;8.500;2023-06-14T09:47:27;3.83;;;3.53;;
9722;SDS011;4900;49.306;8.500;2023-06-14T09:49:52;4.18;;;3.38;;
9722;SDS011;4900;49.306;8.500;2023-06-14T09:52:21;3.67;;;3.38;;
9722;SDS011;4900;49.306;8.500;2023-06-14T09:54:48;3.50;;;3.20;;
9722;SDS011;4900;49.306;8.500;2023-06-14T09:57:17;3.45;;;3.15;;
9722;SDS011;4900;49.306;8.500;2023-06-14T09:59:46;3.47;;;3.17;;
9722;SDS011;4900;49.306;8.500;2023-06-14T10:05:15;3.50;;;3.17;;
9722;SDS011;4900;49.306;8.500;2023-06-14T10:07:52;3.45;;;3.15;;
9722;SDS011;4900;49.306;8.500;2023-06-14T10:10:20;3.22;;;2.97;;
9722;SDS011;4900;49.306;8.500;2023-06-14T10:12:46;3.50;;;3.20;;
9722;SDS011;4900;49.306;8.500;2023-06-14T10:15:15;3.42;;;2.90;;
9722;SDS011;4900;49.306;8.500;2023-06-14T10:17:56;3.92;;;3.08;;
9722;SDS011;4900;49.306;8.500;2023-06-14T10:20:29;2.95;;;2.72;;
9722;SDS011;4900;49.306;8.500;2023-06-14T10:23:04;3.58;;;3.28;;
9722;SDS011;4900;49.306;8.500;2023-06-14T10:25:35;3.40;;;3.10;;
9722;SDS011;4900;49.306;8.500;2023-06-14T10:28:14;3.25;;;2.95;;
9722;SDS011;4900;49.306;8.500;2023-06-14T10:33:29;3.22;;;2.97;;
9722;SDS011;4900;49.306;8.500;2023-06-14T10:36:11;3.28;;;2.97;;
9722;SDS011;4900;49.306;8.500;2023-06-14T10:41:34;3.22;;;2.92;;
9722;SDS011;4900;49.306;8.500;2023-06-14T10:46:39;3.42;;;2.78;;
9722;SDS011;4900;49.306;8.500;2023-06-14T10:49:05;3.40;;;3.10;;
9722;SDS011;4900;49.306;8.500;2023-06-14T10:51:41;3.63;;;3.08;;
9722;SDS011;4900;49.306;8.500;2023-06-14T10:54:11;3.20;;;2.90;;
9722;SDS011;4900;49.306;8.500;2023-06-14T10:56:46;3.40;;;3.10;;
9722;SDS011;4900;49.306;8.500;2023-06-14T10:59:13;3.22;;;3.00;;
9722;SDS011;4900;49.306;8.500;2023-06-14T11:01:57;3.40;;;3.10;;
9722;SDS011;4900;49.306;8.500;2023-06-14T11:04:54;3.40;;;3.10;;
9722;SDS011;4900;49.306;8.500;2023-06-14T11:10:22;3.13;;;2.90;;
9722;SDS011;4900;49.306;8.500;2023-06-14T11:13:12;3.20;;;2.90;;
9722;SDS011;4900;49.306;8.500;2023-06-14T11:15:38;2.90;;;2.70;;
9722;SDS011;4900;49.306;8.500;2023-06-14T11:18:08;3.35;;;3.05;;
9722;SDS011;4900;49.306;8.500;2023-06-14T11:20:37;3.40;;;3.10;;
9722;SDS011;4900;49.306;8.500;2023-06-14T11:23:03;3.22;;;3.00;;
9722;SDS011;4900;49.306;8.500;2023-06-14T11:25:29;3.30;;;3.00;;
9722;SDS011;4900;49.306;8.500;2023-06-14T11:27:55;3.65;;;3.35;;
9722;SDS011;4900;49.306;8.500;2023-06-14T11:30:21;3.25;;;2.95;;
9722;SDS011;4900;49.306;8.500;2023-06-14T11:32:47;3.58;;;3.17;;
9722;SDS011;4900;49.306;8.500;2023-06-14T11:35:14;3.40;;;3.15;;
9722;SDS011;4900;49.306;8.500;2023-06-14T11:37:40;3.38;;;3.08;;
9722;SDS011;4900;49.306;8.500;2023-06-14T11:40:07;3.40;;;3.10;;
9722;SDS011;4900;49.306;8.500;2023-06-14T11:42:34;4.25;;;3.50;;
9722;SDS011;4900;49.306;8.500;2023-06-14T11:45:01;3.30;;;3.00;;
9722;SDS011;4900;49.306;8.500;2023-06-14T11:47:38;3.45;;;3.17;;
9722;SDS011;4900;49.306;8.500;2023-06-14T11:50:07;3.40;;;3.10;;
9722;SDS011;4900;49.306;8.500;2023-06-14T11:52:35;4.40;;;3.47;;
9722;SDS011;4900;49.306;8.500;2023-06-14T11:55:02;3.30;;;3.10;;
9722;SDS011;4900;49.306;8.500;2023-06-14T11:57:30;3.40;;;3.10;;
9722;SDS011;4900;49.306;8.500;2023-06-14T11:59:58;3.70;;;3.40;;
9722;SDS011;4900;49.306;8.500;2023-06-14T12:02:24;4.15;;;3.60;;
9722;SDS011;4900;49.306;8.500;2023-06-14T12:04:50;4.03;;;3.25;;
9722;SDS011;4900;49.306;8.500;2023-06-14T12:07:16;3.60;;;3.30;;
9722;SDS011;4900;49.306;8.500;2023-06-14T12:12:20;3.45;;;3.15;;
9722;SDS011;4900;49.306;8.500;2023-06-14T12:14:47;3.63;;;3.33;;
9722;SDS011;4900;49.306;8.500;2023-06-14T12:17:12;3.65;;;3.35;;
9722;SDS011;4900;49.306;8.500;2023-06-14T12:19:41;3.70;;;3.40;;
9722;SDS011;4900;49.306;8.500;2023-06-14T12:22:11;3.72;;;3.38;;
9722;SDS011;4900;49.306;8.500;2023-06-14T12:24:38;3.60;;;3.30;;
9722;SDS011;4900;49.306;8.500;2023-06-14T12:27:04;3.38;;;3.08;;
9722;SDS011;4900;49.306;8.500;2023-06-14T12:29:31;3.67;;;3.33;;
9722;SDS011;4900;49.306;8.500;2023-06-14T12:31:57;3.15;;;2.85;;
9722;SDS011;4900;49.306;8.500;2023-06-14T12:34:23;3.60;;;3.30;;
9722;SDS011;4900;49.306;8.500;2023-06-14T12:36:55;3.50;;;3.20;;
9722;SDS011;4900;49.306;8.500;2023-06-14T12:39:21;3.55;;;3.25;;
9722;SDS011;4900;49.306;8.500;2023-06-14T12:41:47;3.53;;;3.22;;
9722;SDS011;4900;49.306;8.500;2023-06-14T12:44:13;3.42;;;3.10;;
9722;SDS011;4900;49.306;8.500;2023-06-14T12:46:40;3.35;;;3.05;;
9722;SDS011;4900;49.306;8.500;2023-06-14T12:49:11;3.50;;;3.20;;
9722;SDS011;4900;49.306;8.500;2023-06-14T12:51:38;3.40;;;3.10;;
9722;SDS011;4900;49.306;8.500;2023-06-14T12:54:05;3.67;;;3.38;;
9722;SDS011;4900;49.306;8.500;2023-06-14T12:56:30;3.40;;;3.10;;
9722;SDS011;4900;49.306;8.500;2023-06-14T12:58:56;3.35;;;3.05;;
9722;SDS011;4900;49.306;8.500;2023-06-14T13:01:21;3.58;;;3.28;;
9722;SDS011;4900;49.306;8.500;2023-06-14T13:03:47;3.60;;;3.30;;
9722;SDS011;4900;49.306;8.500;2023-06-14T13:06:13;3.70;;;3.40;;
9722;SDS011;4900;49.306;8.500;2023-06-14T13:08:38;3.35;;;3.05;;
9722;SDS011;4900;49.306;8.500;2023-06-14T13:11:04;3.20;;;2.90;;
9722;SDS011;4900;49.306;8.500;2023-06-14T13:13:29;3.65;;;3.35;;
9722;SDS011;4900;49.306;8.500;2023-06-14T13:15:55;3.47;;;3.17;;
9722;SDS011;4900;49.306;8.500;2023-06-14T13:18:20;3.60;;;3.30;;
9722;SDS011;4900;49.306;8.500;2023-06-14T13:20:46;3.80;;;3.50;;
9722;SDS011;4900;49.306;8.500;2023-06-14T13:23:12;3.58;;;3.28;;
9722;SDS011;4900;49.306;8.500;2023-06-14T13:25:38;3.70;;;3.40;;
9722;SDS011;4900;49.306;8.500;2023-06-14T13:28:04;2.97;;;2.72;;
9722;SDS011;4900;49.306;8.500;2023-06-14T13:30:31;3.40;;;3.10;;
9722;SDS011;4900;49.306;8.500;2023-06-14T13:32:57;3.28;;;3.05;;
9722;SDS011;4900;49.306;8.500;2023-06-14T13:35:23;3.35;;;3.05;;
9722;SDS011;4900;49.306;8.500;2023-06-14T13:37:49;3.40;;;3.10;;
9722;SDS011;4900;49.306;8.500;2023-06-14T13:40:15;3.47;;;3.17;;
9722;SDS011;4900;49.306;8.500;2023-06-14T13:42:41;3.40;;;3.10;;
9722;SDS011;4900;49.306;8.500;2023-06-14T13:45:06;3.47;;;3.17;;
9722;SDS011;4900;49.306;8.500;2023-06-14T13:47:33;3.85;;;3.55;;
9722;SDS011;4900;49.306;8.500;2023-06-14T13:49:58;3.42;;;3.08;;
9722;SDS011;4900;49.306;8.500;2023-06-14T13:52:24;3.40;;;3.10;;
9722;SDS011;4900;49.306;8.500;2023-06-14T13:54:50;3.78;;;3.10;;
9722;SDS011;4900;49.306;8.500;2023-06-14T13:57:16;3.47;;;3.17;;
9722;SDS011;4900;49.306;8.500;2023-06-14T13:59:42;3.38;;;3.08;;
9722;SDS011;4900;49.306;8.500;2023-06-14T14:02:11;3.70;;;3.35;;
9722;SDS011;4900;49.306;8.500;2023-06-14T14:04:37;3.40;;;3.10;;
9722;SDS011;4900;49.306;8.500;2023-06-14T14:07:04;3.80;;;3.47;;
9722;SDS011;4900;49.306;8.500;2023-06-14T14:09:30;3.58;;;3.28;;
9722;SDS011;4900;49.306;8.500;2023-06-14T14:11:56;3.30;;;3.03;;
9722;SDS011;4900;49.306;8.500;2023-06-14T14:14:22;3.60;;;3.30;;
9722;SDS011;4900;49.306;8.500;2023-06-14T14:16:48;3.72;;;3.42;;
9722;SDS011;4900;49.306;8.500;2023-06-14T14:19:16;3.60;;;3.30;;
9722;SDS011;4900;49.306;8.500;2023-06-14T14:21:43;3.75;;;3.45;;
9722;SDS011;4900;49.306;8.500;2023-06-14T14:24:09;3.63;;;3.33;;
9722;SDS011;4900;49.306;8.500;2023-06-14T14:26:35;3.70;;;3.40;;
9722;SDS011;4900;49.306;8.500;2023-06-14T14:29:00;3.78;;;3.47;;
9722;SDS011;4900;49.306;8.500;2023-06-14T14:31:27;4.35;;;3.80;;
9722;SDS011;4900;49.306;8.500;2023-06-14T14:33:52;4.05;;;3.67;;
9722;SDS011;4900;49.306;8.500;2023-06-14T14:36:18;3.70;;;3.40;;
9722;SDS011;4900;49.306;8.500;2023-06-14T14:38:44;3.70;;;3.40;;
9722;SDS011;4900;49.306;8.500;2023-06-14T14:41:10;4.45;;;3.40;;
9722;SDS011;4900;49.306;8.500;2023-06-14T14:43:35;3.80;;;3.50;;
9722;SDS011;4900;49.306;8.500;2023-06-14T14:46:01;3.60;;;3.30;;
9722;SDS011;4900;49.306;8.500;2023-06-14T14:48:26;3.83;;;3.53;;
9722;SDS011;4900;49.306;8.500;2023-06-14T14:50:51;4.05;;;3.42;;
9722;SDS011;4900;49.306;8.500;2023-06-14T14:53:19;4.47;;;3.83;;
9722;SDS011;4900;49.306;8.500;2023-06-14T14:55:45;3.72;;;3.42;;
9722;SDS011;4900;49.306;8.500;2023-06-14T14:58:11;3.53;;;3.22;;
9722;SDS011;4900;49.306;8.500;2023-06-14T15:00:37;3.70;;;3.40;;
9722;SDS011;4900;49.306;8.500;2023-06-14T15:03:03;3.78;;;3.47;;
9722;SDS011;4900;49.306;8.500;2023-06-14T15:05:28;7.93;;;3.58;;
9722;SDS011;4900;49.306;8.500;2023-06-14T15:07:54;3.58;;;3.28;;
9722;SDS011;4900;49.306;8.500;2023-06-14T15:10:19;4.38;;;3.97;;
9722;SDS011;4900;49.306;8.500;2023-06-14T15:12:45;3.67;;;3.38;;
9722;SDS011;4900;49.306;8.500;2023-06-14T15:15:10;3.85;;;3.55;;
9722;SDS011;4900;49.306;8.500;2023-06-14T15:17:36;4.07;;;3.65;;
9722;SDS011;4900;49.306;8.500;2023-06-14T15:20:01;3.92;;;3.63;;
9722;SDS011;4900;49.306;8.500;2023-06-14T15:22:27;4.00;;;3.60;;
9722;SDS011;4900;49.306;8.500;2023-06-14T15:24:53;3.70;;;3.40;;
9722;SDS011;4900;49.306;8.500;2023-06-14T15:27:18;3.60;;;3.30;;
9722;SDS011;4900;49.306;8.500;2023-06-14T15:29:44;3.80;;;3.50;;